Time;durP1;ratioP1;P1;durP2;ratioP2;P2;SDS_P1;SDS_P2;PMS_P1;PMS_P2;Temp;Humidity;BMP_temperature;BMP_pressure;BME280_temperature;BME280_humidity;BME280_pressure;Samples;Min_cycle;Max_cycle;Signal;HPM_P1;HPM_P2
2023/09/30 00:00:40;;;;;;;6.83;4.70;;;;;22.20;101393.00;;;;2537641;23;20242;-60
2023/09/30 00:01:40;;;;;;;5.87;4.80;;;;;22.20;101390.00;;;;2525523;23;20727;-60
2023/09/30 00:02:40;;;;;;;6.17;4.43;;;;;22.30;101393.00;;;;2541006;23;20197;-60
2023/09/30 00:03:41;;;;;;;5.03;4.00;;;;;22.20;101394.00;;;;2539651;23;20535;-60
2023/09/30 00:04:41;;;;;;;5.13;3.83;;;;;22.30;101388.00;;;;2541241;23;20198;-60
2023/09/30 00:05:41;;;;;;;6.10;4.47;;;;;22.30;101393.00;;;;2540277;23;20244;-60
2023/09/30 00:06:42;;;;;;;5.07;4.03;;;;;22.20;101389.00;;;;2527160;23;20190;-60
2023/09/30 00:07:42;;;;;;;5.70;3.97;;;;;22.20;101394.00;;;;2540348;23;20194;-60
2023/09/30 00:08:43;;;;;;;5.30;4.53;;;;;22.20;101384.00;;;;2540432;23;20210;-60
2023/09/30 00:09:43;;;;;;;4.93;4.43;;;;;22.20;101390.00;;;;2539201;23;20202;-60
2023/09/30 00:10:44;;;;;;;5.10;4.00;;;;;22.20;101392.00;;;;2537347;23;20434;-60
2023/09/30 00:11:44;;;;;;;6.57;3.70;;;;;22.30;101398.00;;;;2527166;23;20230;-60
2023/09/30 00:12:45;;;;;;;6.00;4.80;;;;;22.20;101392.00;;;;2537808;23;20249;-60
2023/09/30 00:13:45;;;;;;;5.03;4.00;;;;;22.30;101399.00;;;;2541024;23;20205;-60
2023/09/30 00:14:48;;;;;;;5.27;4.40;;;;;22.20;101404.00;;;;2540095;23;20206;-60
2023/09/30 00:15:48;;;;;;;5.72;4.28;;;;;22.20;101407.00;;;;2540487;23;20222;-60
2023/09/30 00:16:49;;;;;;;5.17;4.10;;;;;22.20;101398.00;;;;2523155;23;20701;-60
2023/09/30 00:17:49;;;;;;;4.80;3.90;;;;;22.20;101404.00;;;;2527429;23;20198;-60
2023/09/30 00:18:49;;;;;;;4.07;3.23;;;;;22.20;101405.00;;;;2537658;23;20202;-60
2023/09/30 00:19:50;;;;;;;5.80;4.00;;;;;22.20;101416.00;;;;2537487;23;20202;-60
2023/09/30 00:20:50;;;;;;;5.30;4.10;;;;;22.20;101413.00;;;;2541663;23;20202;-60
2023/09/30 00:21:50;;;;;;;5.20;4.00;;;;;22.20;101412.00;;;;2516544;23;20672;-60
2023/09/30 00:22:51;;;;;;;5.90;3.97;;;;;22.20;101410.00;;;;2552832;23;20194;-60
2023/09/30 00:23:51;;;;;;;5.40;4.03;;;;;22.20;101410.00;;;;2548686;23;20197;-60
2023/09/30 00:24:51;;;;;;;4.70;4.17;;;;;22.20;101412.00;;;;2540883;23;20205;-60
2023/09/30 00:25:52;;;;;;;5.20;4.30;;;;;22.20;101401.00;;;;2541332;23;20222;-60
2023/09/30 00:26:52;;;;;;;4.27;3.53;;;;;22.30;101399.00;;;;2525449;23;20242;-60
2023/09/30 00:27:52;;;;;;;6.13;4.60;;;;;22.20;101393.00;;;;2539159;23;20190;-60
2023/09/30 00:28:53;;;;;;;6.30;3.97;;;;;22.20;101393.00;;;;2540490;23;20201;-60
2023/09/30 00:29:53;;;;;;;5.57;4.40;;;;;22.20;101397.00;;;;2537755;23;20269;-60
2023/09/30 00:30:54;;;;;;;4.90;3.93;;;;;22.20;101391.00;;;;2540790;23;20197;-60
2023/09/30 00:31:54;;;;;;;6.20;4.23;;;;;22.20;101404.00;;;;2518291;23;20201;-60
2023/09/30 00:32:54;;;;;;;5.00;3.60;;;;;22.20;101392.00;;;;2528247;23;20203;-60
2023/09/30 00:33:55;;;;;;;7.20;4.43;;;;;22.20;101390.00;;;;2526174;23;20690;-60
2023/09/30 00:34:56;;;;;;;4.90;3.90;;;;;22.20;101394.00;;;;2540705;23;20223;-60
2023/09/30 00:35:56;;;;;;;3.70;3.30;;;;;22.20;101396.00;;;;2539590;23;20453;-60
2023/09/30 00:36:56;;;;;;;6.40;4.30;;;;;22.20;101388.00;;;;2531055;23;20200;-60
2023/09/30 00:37:57;;;;;;;4.30;3.40;;;;;22.30;101389.00;;;;2552573;23;20194;-60
2023/09/30 00:38:57;;;;;;;6.47;3.87;;;;;22.20;101391.00;;;;2545488;23;20190;-60
2023/09/30 00:39:58;;;;;;;5.13;4.00;;;;;22.20;101391.00;;;;2539783;23;20217;-60
2023/09/30 00:40:58;;;;;;;5.03;3.73;;;;;22.20;101428.00;;;;2537266;23;20991;-60
2023/09/30 00:41:59;;;;;;;5.50;4.43;;;;;22.20;101396.00;;;;2526345;23;21148;-60
2023/09/30 00:42:59;;;;;;;5.93;3.67;;;;;22.20;101394.00;;;;2540114;23;20716;-60
2023/09/30 00:43:59;;;;;;;5.00;3.90;;;;;22.20;101398.00;;;;2541694;23;20553;-60
2023/09/30 00:45:00;;;;;;;5.47;3.83;;;;;22.20;101420.00;;;;2539481;23;20205;-60
2023/09/30 00:46:10;;;;;;;4.97;3.60;;;;;22.20;101395.00;;;;2540293;23;20197;-60
2023/09/30 00:47:11;;;;;;;5.07;3.72;;;;;22.20;101390.00;;;;2525515;23;20202;-60
2023/09/30 00:48:11;;;;;;;4.70;3.50;;;;;22.20;101366.00;;;;2527650;23;20207;-60
2023/09/30 00:49:12;;;;;;;4.23;3.23;;;;;22.20;101401.00;;;;2525010;23;20210;-60
2023/09/30 00:50:13;;;;;;;5.70;3.50;;;;;22.20;101388.00;;;;2502167;23;20192;-60
2023/09/30 00:51:13;;;;;;;4.40;3.45;;;;;22.20;101394.00;;;;2528527;23;20210;-60
2023/09/30 00:52:14;;;;;;;4.73;3.90;;;;;22.20;101401.00;;;;2501712;23;20207;-60
2023/09/30 00:53:14;;;;;;;4.40;3.43;;;;;21.70;101391.00;;;;2528127;23;20211;-60
2023/09/30 00:54:14;;;;;;;4.70;3.33;;;;;22.20;101388.00;;;;2540357;23;20205;-60
2023/09/30 00:55:15;;;;;;;5.10;3.90;;;;;22.20;101389.00;;;;2527693;23;20194;-60
2023/09/30 00:56:16;;;;;;;5.40;4.20;;;;;22.20;101387.00;;;;2516104;23;20199;-60
2023/09/30 00:57:18;;;;;;;5.13;4.03;;;;;22.20;101386.00;;;;2498953;23;20200;-60
2023/09/30 00:58:19;;;;;;;4.60;3.67;;;;;22.20;101389.00;;;;2528356;23;20295;-60
2023/09/30 00:59:19;;;;;;;7.65;4.22;;;;;22.20;101382.00;;;;2527877;23;20210;-60
2023/09/30 01:00:20;;;;;;;4.60;3.50;;;;;22.20;101364.00;;;;2525315;23;20891;-60
2023/09/30 01:01:20;;;;;;;4.20;3.37;;;;;22.20;101402.00;;;;2512767;23;20500;-60
2023/09/30 01:02:21;;;;;;;4.70;3.43;;;;;22.20;101395.00;;;;2512556;23;20526;-60
2023/09/30 01:03:22;;;;;;;6.37;4.20;;;;;22.20;101397.00;;;;2514963;23;20261;-60
2023/09/30 01:04:22;;;;;;;4.23;3.63;;;;;22.20;101409.00;;;;2527164;23;20203;-60
2023/09/30 01:05:23;;;;;;;4.50;3.53;;;;;22.20;101408.00;;;;2539605;23;20438;-60
2023/09/30 01:06:23;;;;;;;4.90;3.50;;;;;22.20;101410.00;;;;2524792;23;20218;-60
2023/09/30 01:07:23;;;;;;;4.73;3.50;;;;;22.20;101414.00;;;;2524531;23;20206;-60
2023/09/30 01:08:24;;;;;;;3.77;3.10;;;;;22.20;101421.00;;;;2540144;23;20685;-60
2023/09/30 01:09:25;;;;;;;4.73;3.83;;;;;22.20;101435.00;;;;2538022;23;20213;-60
2023/09/30 01:10:25;;;;;;;6.17;3.97;;;;;22.20;101429.00;;;;2526453;23;20657;-60
2023/09/30 01:11:26;;;;;;;3.63;3.00;;;;;22.20;101429.00;;;;2526397;23;20419;-60
2023/09/30 01:12:26;;;;;;;5.50;3.43;;;;;22.20;101432.00;;;;2513650;23;20194;-60
2023/09/30 01:13:34;;;;;;;4.83;3.83;;;;;22.20;101428.00;;;;2540145;23;20309;-60
2023/09/30 01:14:35;;;;;;;4.97;3.80;;;;;22.20;101414.00;;;;2552230;23;20663;-61
2023/09/30 01:15:36;;;;;;;4.57;3.30;;;;;22.20;101407.00;;;;2539653;23;20198;-60
2023/09/30 01:16:37;;;;;;;4.78;3.40;;;;;22.20;101397.00;;;;2513055;23;20194;-60
2023/09/30 01:17:37;;;;;;;4.23;3.30;;;;;22.20;101401.00;;;;2539786;23;20198;-61
2023/09/30 01:18:38;;;;;;;5.00;3.43;;;;;22.20;101391.00;;;;2526848;23;20261;-60
2023/09/30 01:19:39;;;;;;;3.80;3.10;;;;;22.20;101396.00;;;;2515776;23;20195;-60
2023/09/30 01:20:40;;;;;;;4.88;3.70;;;;;22.20;101427.00;;;;2524155;23;20209;-60
2023/09/30 01:21:41;;;;;;;4.27;3.67;;;;;22.20;101384.00;;;;2513820;23;20657;-60
2023/09/30 01:22:42;;;;;;;4.22;3.22;;;;;22.20;101385.00;;;;2524827;23;20194;-60
2023/09/30 01:23:43;;;;;;;4.80;3.53;;;;;22.20;101393.00;;;;2539270;23;20198;-60
2023/09/30 01:24:47;;;;;;;4.50;3.15;;;;;22.20;101391.00;;;;2550833;23;20206;-60
2023/09/30 01:25:47;;;;;;;3.78;3.10;;;;;22.20;101389.00;;;;2549251;23;20247;-61
2023/09/30 01:26:48;;;;;;;5.27;3.70;;;;;22.20;101390.00;;;;2536748;23;20652;-60
2023/09/30 01:27:50;;;;;;;4.80;3.27;;;;;22.20;101389.00;;;;2550208;23;20694;-60
2023/09/30 01:28:50;;;;;;;4.22;3.30;;;;;22.20;101400.00;;;;2551114;23;20197;-60
2023/09/30 01:29:50;;;;;;;4.00;3.20;;;;;22.20;101391.00;;;;2529029;23;20198;-60
2023/09/30 01:30:51;;;;;;;4.10;3.23;;;;;22.20;101403.00;;;;2539558;23;20241;-60
2023/09/30 01:31:52;;;;;;;5.50;3.90;;;;;22.20;101404.00;;;;2536406;23;20373;-60
2023/09/30 01:32:53;;;;;;;4.93;3.37;;;;;22.20;101404.00;;;;2551722;23;20437;-60
2023/09/30 01:33:54;;;;;;;3.67;2.80;;;;;22.20;101403.00;;;;2537105;23;20269;-60
2023/09/30 01:34:54;;;;;;;5.15;3.33;;;;;22.20;101402.00;;;;2537911;23;20281;-60
2023/09/30 01:35:55;;;;;;;4.00;2.80;;;;;22.20;101404.00;;;;2537303;23;20205;-60
2023/09/30 01:36:55;;;;;;;4.27;3.13;;;;;22.20;101399.00;;;;2524823;23;20206;-60
2023/09/30 01:37:55;;;;;;;3.80;3.30;;;;;22.20;101404.00;;;;2552506;23;20201;-60
2023/09/30 01:38:56;;;;;;;3.90;3.17;;;;;22.20;101406.00;;;;2551027;23;20201;-60
2023/09/30 01:39:57;;;;;;;4.53;3.10;;;;;21.50;101420.00;;;;2537786;23;20194;-60
2023/09/30 01:40:57;;;;;;;6.13;3.70;;;;;22.20;101426.00;;;;2540150;23;20422;-60
2023/09/30 01:41:58;;;;;;;5.10;3.00;;;;;22.20;101419.00;;;;2524964;23;20201;-60
2023/09/30 01:42:58;;;;;;;3.83;3.13;;;;;22.20;101419.00;;;;2527669;23;20201;-60
2023/09/30 01:43:58;;;;;;;3.67;3.10;;;;;22.20;101424.00;;;;2527772;23;20250;-60
2023/09/30 01:44:59;;;;;;;3.67;2.83;;;;;22.20;101421.00;;;;2524145;23;20202;-60
2023/09/30 01:45:59;;;;;;;4.23;3.63;;;;;22.20;101416.00;;;;2527769;23;20712;-61
2023/09/30 01:46:59;;;;;;;3.40;2.87;;;;;22.20;101413.00;;;;2522121;23;20727;-60
2023/09/30 01:48:00;;;;;;;4.00;2.60;;;;;22.20;101409.00;;;;2542847;23;20597;-60
2023/09/30 01:49:00;;;;;;;4.33;3.10;;;;;22.20;101400.00;;;;2550610;23;20194;-60
2023/09/30 01:50:00;;;;;;;4.80;2.87;;;;;22.20;101411.00;;;;2525706;23;20198;-60
2023/09/30 01:51:01;;;;;;;4.80;3.53;;;;;21.80;101413.00;;;;2519973;23;20191;-60
2023/09/30 01:52:01;;;;;;;6.10;3.80;;;;;22.20;101420.00;;;;2536982;23;20197;-60
2023/09/30 01:53:01;;;;;;;4.30;3.10;;;;;22.20;101413.00;;;;2552400;23;20202;-60
2023/09/30 01:54:02;;;;;;;5.20;3.23;;;;;22.20;101414.00;;;;2552268;23;20532;-60
2023/09/30 01:55:02;;;;;;;4.30;3.00;;;;;22.20;101419.00;;;;2539031;23;20194;-60
2023/09/30 01:56:02;;;;;;;4.80;3.23;;;;;22.20;101416.00;;;;2538786;23;20226;-60
2023/09/30 01:57:03;;;;;;;5.07;3.40;;;;;22.20;101423.00;;;;2537398;23;20628;-60
2023/09/30 01:58:03;;;;;;;5.63;3.23;;;;;22.20;101432.00;;;;2552995;23;20256;-60
2023/09/30 01:59:04;;;;;;;4.63;3.50;;;;;22.20;101417.00;;;;2551868;23;20197;-60
2023/09/30 02:00:05;;;;;;;3.67;2.80;;;;;22.20;101417.00;;;;2550626;23;20900;-60
2023/09/30 02:01:05;;;;;;;4.05;2.85;;;;;22.20;101420.00;;;;2538509;23;20220;-60
2023/09/30 02:02:05;;;;;;;4.60;3.47;;;;;22.20;101419.00;;;;2524680;23;20244;-60
2023/09/30 02:03:07;;;;;;;4.93;3.20;;;;;22.20;101432.00;;;;2540415;23;20201;-60
2023/09/30 02:04:07;;;;;;;4.18;3.10;;;;;22.20;101434.00;;;;2539192;23;20229;-60
2023/09/30 02:05:08;;;;;;;3.90;2.97;;;;;22.20;101436.00;;;;2553391;23;20193;-60
2023/09/30 02:06:08;;;;;;;3.90;3.03;;;;;22.20;101436.00;;;;2551482;23;20198;-63
2023/09/30 02:07:08;;;;;;;4.90;3.50;;;;;22.20;101447.00;;;;2535907;23;20430;-60
2023/09/30 02:08:09;;;;;;;3.47;2.83;;;;;22.20;101455.00;;;;2551794;23;20197;-60
2023/09/30 02:09:09;;;;;;;4.40;3.23;;;;;21.90;101452.00;;;;2552859;23;20201;-60
2023/09/30 02:10:10;;;;;;;4.10;2.90;;;;;22.20;101457.00;;;;2548514;23;20277;-61
2023/09/30 02:11:12;;;;;;;3.33;2.80;;;;;22.20;101453.00;;;;2550888;23;20232;-61
2023/09/30 02:12:12;;;;;;;5.03;2.90;;;;;22.20;101448.00;;;;2538629;23;20193;-61
2023/09/30 02:13:13;;;;;;;5.40;3.27;;;;;22.20;101451.00;;;;2539435;23;20198;-60
2023/09/30 02:14:13;;;;;;;3.70;3.10;;;;;22.20;101446.00;;;;2539881;23;20187;-61
2023/09/30 02:15:14;;;;;;;3.67;2.70;;;;;22.20;101445.00;;;;2539029;23;20225;-60
2023/09/30 02:16:14;;;;;;;3.90;2.83;;;;;22.20;101440.00;;;;2527626;23;20222;-60
2023/09/30 02:17:14;;;;;;;3.63;2.70;;;;;22.20;101329.00;;;;2526498;23;20217;-61
2023/09/30 02:18:15;;;;;;;5.00;2.87;;;;;22.20;101437.00;;;;2552104;23;20659;-60
2023/09/30 02:19:15;;;;;;;3.83;2.80;;;;;22.20;101435.00;;;;2553567;23;20245;-61
2023/09/30 02:20:18;;;;;;;4.67;2.73;;;;;22.20;101435.00;;;;2551808;23;20204;-61
2023/09/30 02:21:19;;;;;;;4.55;3.35;;;;;22.20;101437.00;;;;2553644;23;20255;-60
2023/09/30 02:22:19;;;;;;;4.80;3.30;;;;;22.20;101426.00;;;;2539009;23;20190;-61
2023/09/30 02:23:21;;;;;;;3.73;2.80;;;;;22.20;101430.00;;;;2553301;23;20193;-61
2023/09/30 02:24:23;;;;;;;3.95;2.88;;;;;22.20;101430.00;;;;2553986;23;20194;-60
2023/09/30 02:25:23;;;;;;;4.90;2.95;;;;;22.20;101418.00;;;;2551817;23;20197;-60
2023/09/30 02:26:25;;;;;;;3.97;2.97;;;;;22.20;101424.00;;;;2553852;23;20553;-60
2023/09/30 02:27:25;;;;;;;4.38;3.08;;;;;22.20;101423.00;;;;2537877;23;20863;-61
2023/09/30 02:28:26;;;;;;;4.03;3.00;;;;;22.20;101454.00;;;;2551263;23;20194;-60
2023/09/30 02:29:26;;;;;;;3.40;2.73;;;;;22.20;101425.00;;;;2540059;23;20637;-60
2023/09/30 02:30:27;;;;;;;4.07;2.90;;;;;22.20;101418.00;;;;2539222;23;20999;-60
2023/09/30 02:31:27;;;;;;;4.53;2.65;;;;;22.20;101430.00;;;;2540221;23;20190;-60
2023/09/30 02:32:28;;;;;;;3.43;2.80;;;;;22.20;101389.00;;;;2525642;23;20273;-61
2023/09/30 02:33:29;;;;;;;5.30;3.50;;;;;22.20;101423.00;;;;2528178;23;20206;-60
2023/09/30 02:34:30;;;;;;;5.73;3.27;;;;;22.20;101419.00;;;;2528120;23;20438;-60
2023/09/30 02:35:30;;;;;;;2.83;2.60;;;;;22.20;101417.00;;;;2549258;23;20209;-60
2023/09/30 02:36:31;;;;;;;2.90;2.30;;;;;22.20;101413.00;;;;2521881;23;20266;-61
2023/09/30 02:37:35;;;;;;;3.10;2.30;;;;;22.20;101416.00;;;;2538437;23;20209;-60
2023/09/30 02:38:38;;;;;;;4.63;2.70;;;;;22.20;101413.00;;;;2540440;23;20208;-60
2023/09/30 02:39:39;;;;;;;4.82;2.90;;;;;22.20;101408.00;;;;2524962;23;20199;-61
2023/09/30 02:40:40;;;;;;;4.13;2.97;;;;;22.20;101415.00;;;;2537230;23;20261;-60
2023/09/30 02:41:40;;;;;;;3.75;2.30;;;;;22.20;101417.00;;;;2535926;23;20927;-60
2023/09/30 02:42:41;;;;;;;4.40;2.90;;;;;22.20;101411.00;;;;2553769;23;20205;-60
2023/09/30 02:43:41;;;;;;;4.60;2.80;;;;;22.20;101424.00;;;;2539922;23;20214;-60
2023/09/30 02:44:41;;;;;;;3.67;2.70;;;;;22.20;101415.00;;;;2540733;23;20201;-60
2023/09/30 02:45:42;;;;;;;3.63;2.70;;;;;22.20;101420.00;;;;2553638;23;20217;-60
2023/09/30 02:46:42;;;;;;;3.27;2.40;;;;;22.20;101419.00;;;;2538546;23;20224;-60
2023/09/30 02:47:42;;;;;;;4.70;3.20;;;;;22.20;101412.00;;;;2553631;23;20197;-60
2023/09/30 02:48:43;;;;;;;3.60;2.57;;;;;22.10;101412.00;;;;2539595;23;20237;-62
2023/09/30 02:49:43;;;;;;;3.73;2.57;;;;;22.20;101412.00;;;;2538579;23;20206;-61
2023/09/30 02:50:44;;;;;;;3.13;2.57;;;;;22.20;101425.00;;;;2553646;23;20194;-61
2023/09/30 02:51:45;;;;;;;3.47;2.28;;;;;22.10;101424.00;;;;2526126;23;20209;-60
2023/09/30 02:52:45;;;;;;;4.20;2.87;;;;;22.20;101422.00;;;;2540813;23;20205;-60
2023/09/30 02:53:48;;;;;;;4.63;2.43;;;;;22.20;101422.00;;;;2553178;23;20202;-60
2023/09/30 02:54:49;;;;;;;3.22;2.70;;;;;22.10;101430.00;;;;2551716;23;20919;-61
2023/09/30 02:55:52;;;;;;;3.73;2.37;;;;;22.10;101463.00;;;;2551381;23;20206;-60
2023/09/30 02:56:52;;;;;;;4.60;2.67;;;;;22.10;101431.00;;;;2538706;23;20429;-60
2023/09/30 02:57:53;;;;;;;3.30;2.20;;;;;22.20;101442.00;;;;2552782;23;20198;-60
2023/09/30 02:58:53;;;;;;;3.00;2.20;;;;;22.20;101449.00;;;;2550523;23;20205;-60
2023/09/30 02:59:54;;;;;;;3.73;2.47;;;;;22.20;101442.00;;;;2535504;23;20195;-60
2023/09/30 03:00:54;;;;;;;3.33;2.63;;;;;22.20;101433.00;;;;2539722;23;20759;-60
2023/09/30 03:01:56;;;;;;;3.37;2.43;;;;;22.20;101442.00;;;;2539204;23;20256;-60
2023/09/30 03:02:56;;;;;;;3.72;2.42;;;;;22.10;101430.00;;;;2552485;23;20199;-60
2023/09/30 03:03:56;;;;;;;3.00;2.27;;;;;22.10;101434.00;;;;2553603;23;20200;-60
2023/09/30 03:04:58;;;;;;;3.30;2.63;;;;;22.10;101432.00;;;;2553143;23;20208;-60
2023/09/30 03:05:58;;;;;;;3.25;2.75;;;;;22.10;101431.00;;;;2540591;23;20290;-60
2023/09/30 03:07:00;;;;;;;3.33;2.33;;;;;22.10;101429.00;;;;2526586;23;20225;-60
2023/09/30 03:08:01;;;;;;;4.27;2.33;;;;;22.10;101439.00;;;;2552677;23;20656;-60
2023/09/30 03:09:04;;;;;;;3.20;2.30;;;;;22.10;101438.00;;;;2540120;23;20527;-60
2023/09/30 03:10:05;;;;;;;3.85;2.70;;;;;22.10;101440.00;;;;2538798;23;20198;-60
2023/09/30 03:11:05;;;;;;;3.65;3.08;;;;;22.10;101439.00;;;;2553658;23;20213;-61
2023/09/30 03:12:08;;;;;;;3.43;2.70;;;;;22.10;101470.00;;;;2538357;23;20194;-60
2023/09/30 03:13:08;;;;;;;3.90;3.05;;;;;22.10;101432.00;;;;2553697;23;20201;-60
2023/09/30 03:14:10;;;;;;;3.67;2.70;;;;;22.10;101430.00;;;;2553644;23;20198;-61
2023/09/30 03:15:11;;;;;;;2.90;2.45;;;;;22.10;101434.00;;;;2539661;23;20218;-60
2023/09/30 03:16:11;;;;;;;4.50;2.50;;;;;22.10;101434.00;;;;2540455;23;20246;-61
2023/09/30 03:17:12;;;;;;;3.10;2.07;;;;;22.10;101430.00;;;;2538425;23;20189;-60
2023/09/30 03:18:13;;;;;;;4.33;2.50;;;;;22.10;101436.00;;;;2553554;23;20200;-60
2023/09/30 03:19:16;;;;;;;4.50;2.45;;;;;22.10;101426.00;;;;2551304;23;20217;-60
2023/09/30 03:20:19;;;;;;;4.28;2.75;;;;;22.10;101439.00;;;;2538702;23;20652;-60
2023/09/30 03:21:19;;;;;;;2.80;2.13;;;;;22.10;101431.00;;;;2541354;23;20268;-61
2023/09/30 03:22:20;;;;;;;3.30;2.50;;;;;22.10;101437.00;;;;2538644;23;20241;-61
2023/09/30 03:23:20;;;;;;;3.60;2.53;;;;;22.10;101440.00;;;;2553616;23;20252;-60
2023/09/30 03:24:21;;;;;;;3.00;2.20;;;;;22.10;101448.00;;;;2552929;23;20654;-60
2023/09/30 03:25:22;;;;;;;3.53;2.37;;;;;22.10;101443.00;;;;2553142;23;20196;-60
2023/09/30 03:26:22;;;;;;;3.40;2.47;;;;;22.10;101439.00;;;;2552633;23;20255;-60
2023/09/30 03:27:24;;;;;;;3.35;2.20;;;;;22.10;101444.00;;;;2538765;23;20421;-60
2023/09/30 03:28:24;;;;;;;2.93;2.20;;;;;22.10;101435.00;;;;2553021;23;20933;-60
2023/09/30 03:29:26;;;;;;;3.83;2.60;;;;;22.10;101427.00;;;;2552330;23;20202;-60
2023/09/30 03:30:26;;;;;;;4.75;2.53;;;;;22.10;101435.00;;;;2551734;23;20532;-61
2023/09/30 03:31:26;;;;;;;3.43;2.40;;;;;22.10;101431.00;;;;2552673;23;20198;-60
2023/09/30 03:32:27;;;;;;;3.97;2.50;;;;;22.10;101501.00;;;;2525674;23;20213;-60
2023/09/30 03:33:28;;;;;;;4.27;2.80;;;;;22.10;101436.00;;;;2539320;23;20206;-60
2023/09/30 03:34:29;;;;;;;4.50;2.47;;;;;22.10;101432.00;;;;2552250;23;20436;-61
2023/09/30 03:35:29;;;;;;;2.33;2.07;;;;;22.10;101438.00;;;;2552867;23;20198;-60
2023/09/30 03:36:30;;;;;;;2.70;2.00;;;;;22.10;101434.00;;;;2545190;23;20429;-61
2023/09/30 03:37:31;;;;;;;4.27;2.27;;;;;22.10;101428.00;;;;2536642;23;20637;-61
2023/09/30 03:38:32;;;;;;;3.90;2.50;;;;;22.10;101427.00;;;;2515564;23;20271;-61
2023/09/30 03:39:32;;;;;;;3.00;2.20;;;;;22.10;101416.00;;;;2528730;23;20537;-60
2023/09/30 03:40:33;;;;;;;2.83;2.20;;;;;22.10;101421.00;;;;2538695;23;20194;-61
2023/09/30 03:41:36;;;;;;;2.45;2.20;;;;;22.10;101418.00;;;;2525907;23;20770;-61
2023/09/30 03:42:38;;;;;;;3.20;2.20;;;;;22.10;101412.00;;;;2539669;23;20272;-60
2023/09/30 03:43:40;;;;;;;2.80;1.95;;;;;22.10;101404.00;;;;2527427;23;20195;-60
2023/09/30 03:44:41;;;;;;;3.20;2.50;;;;;22.10;101412.00;;;;2523387;23;20946;-60
2023/09/30 03:45:41;;;;;;;2.70;2.00;;;;;22.10;101405.00;;;;2528609;23;20195;-60
2023/09/30 03:46:42;;;;;;;3.17;2.10;;;;;22.10;101407.00;;;;2526210;23;20198;-60
2023/09/30 03:47:43;;;;;;;3.63;2.00;;;;;22.10;101416.00;;;;2539524;23;20269;-60
2023/09/30 03:48:44;;;;;;;3.33;2.20;;;;;22.10;101413.00;;;;2540297;23;20194;-60
2023/09/30 03:49:45;;;;;;;3.37;2.23;;;;;22.10;101405.00;;;;2538559;23;20225;-60
2023/09/30 03:50:45;;;;;;;2.83;2.10;;;;;22.10;101417.00;;;;2537868;23;20437;-60
2023/09/30 03:51:46;;;;;;;3.17;2.07;;;;;22.10;101419.00;;;;2525792;23;20191;-60
2023/09/30 03:52:47;;;;;;;3.47;2.00;;;;;22.10;101413.00;;;;2539107;23;20278;-62
2023/09/30 03:53:47;;;;;;;2.60;2.03;;;;;22.10;101415.00;;;;2540488;23;20472;-61
2023/09/30 03:54:48;;;;;;;3.07;2.23;;;;;22.10;101406.00;;;;2553052;23;20868;-60
2023/09/30 03:55:48;;;;;;;4.07;2.40;;;;;21.20;101414.00;;;;2553429;23;20977;-61
2023/09/30 03:56:48;;;;;;;5.23;2.77;;;;;22.10;101409.00;;;;2538765;23;20202;-61
2023/09/30 03:57:50;;;;;;;3.20;2.13;;;;;22.10;101420.00;;;;2553241;23;20279;-60
2023/09/30 03:58:52;;;;;;;3.80;2.65;;;;;22.10;101420.00;;;;2540067;23;20273;-60
2023/09/30 03:59:53;;;;;;;2.33;1.77;;;;;22.10;101427.00;;;;2539126;23;20704;-61
2023/09/30 04:00:54;;;;;;;2.47;2.00;;;;;22.10;101424.00;;;;2553345;23;20194;-60
2023/09/30 04:01:54;;;;;;;3.70;2.50;;;;;22.10;101416.00;;;;2538059;23;20202;-60
2023/09/30 04:02:58;;;;;;;2.83;2.27;;;;;22.10;101416.00;;;;2553449;23;20276;-60
2023/09/30 04:03:58;;;;;;;3.22;2.20;;;;;22.10;101422.00;;;;2539635;23;20195;-60
2023/09/30 04:04:59;;;;;;;2.80;2.20;;;;;22.10;101419.00;;;;2541141;23;20225;-60
2023/09/30 04:06:02;;;;;;;2.90;1.85;;;;;22.10;101420.00;;;;2540429;23;20230;-61
2023/09/30 04:07:05;;;;;;;2.70;2.10;;;;;22.10;101422.00;;;;2525066;23;20542;-60
2023/09/30 04:08:05;;;;;;;3.83;2.42;;;;;22.10;101424.00;;;;2540265;23;20253;-60
2023/09/30 04:09:12;;;;;;;3.10;2.40;;;;;22.10;101421.00;;;;2539920;23;20357;-60
2023/09/30 04:10:12;;;;;;;3.03;2.00;;;;;22.10;101415.00;;;;2551938;23;20216;-60
2023/09/30 04:11:17;;;;;;;3.20;2.57;;;;;22.10;101423.00;;;;2539854;23;20209;-60
2023/09/30 04:12:18;;;;;;;2.65;1.92;;;;;22.10;101416.00;;;;2526604;23;20190;-60
2023/09/30 04:13:20;;;;;;;2.93;2.40;;;;;22.10;101409.00;;;;2539196;23;20210;-60
2023/09/30 04:14:21;;;;;;;3.45;2.22;;;;;22.10;101410.00;;;;2540633;23;20195;-60
2023/09/30 04:15:21;;;;;;;4.60;2.10;;;;;22.10;101418.00;;;;2552851;23;20526;-60
2023/09/30 04:16:23;;;;;;;4.10;2.10;;;;;22.10;101416.00;;;;2550542;23;20284;-60
2023/09/30 04:17:23;;;;;;;4.07;2.17;;;;;22.10;101418.00;;;;2535188;23;20374;-61
2023/09/30 04:18:26;;;;;;;3.17;2.10;;;;;22.10;101422.00;;;;2552949;23;20201;-60
2023/09/30 04:19:26;;;;;;;5.38;2.35;;;;;22.10;101421.00;;;;2552957;23;20192;-60
2023/09/30 04:20:27;;;;;;;4.00;2.30;;;;;22.10;101424.00;;;;2551581;23;20198;-60
2023/09/30 04:21:29;;;;;;;3.70;2.00;;;;;22.10;101433.00;;;;2553563;23;20539;-60
2023/09/30 04:22:31;;;;;;;2.50;2.05;;;;;22.10;101416.00;;;;2546718;23;20201;-61
2023/09/30 04:23:31;;;;;;;3.58;2.08;;;;;22.10;101423.00;;;;2539727;23;20191;-60
2023/09/30 04:24:31;;;;;;;3.10;1.90;;;;;22.10;101425.00;;;;2540445;23;20256;-60
2023/09/30 04:25:32;;;;;;;2.97;2.17;;;;;22.10;101419.00;;;;2552812;23;20193;-60
2023/09/30 04:26:32;;;;;;;3.37;2.13;;;;;22.10;101410.00;;;;2525765;23;20194;-60
2023/09/30 04:27:33;;;;;;;3.30;2.03;;;;;22.10;101412.00;;;;2526547;23;20191;-61
2023/09/30 04:28:34;;;;;;;3.07;2.30;;;;;22.10;101407.00;;;;2538936;23;20198;-61
2023/09/30 04:29:34;;;;;;;3.00;1.70;;;;;22.10;101402.00;;;;2552633;23;20202;-60
2023/09/30 04:30:35;;;;;;;2.97;2.07;;;;;22.10;101401.00;;;;2550822;23;20595;-61
2023/09/30 04:31:35;;;;;;;3.03;2.30;;;;;22.10;101410.00;;;;2538141;23;20200;-60
2023/09/30 04:32:36;;;;;;;2.50;2.00;;;;;22.10;101423.00;;;;2551893;23;20221;-60
2023/09/30 04:33:37;;;;;;;3.53;2.20;;;;;22.10;101415.00;;;;2539585;23;20213;-60
2023/09/30 04:34:37;;;;;;;2.70;1.90;;;;;22.10;101423.00;;;;2527182;23;20645;-60
2023/09/30 04:35:38;;;;;;;3.27;2.27;;;;;22.10;101421.00;;;;2539244;23;20197;-60
2023/09/30 04:36:38;;;;;;;3.00;2.00;;;;;22.10;101424.00;;;;2538484;23;20590;-60
2023/09/30 04:37:39;;;;;;;3.67;2.23;;;;;22.10;101419.00;;;;2552240;23;20221;-60
2023/09/30 04:38:39;;;;;;;3.00;1.93;;;;;22.10;101431.00;;;;2552192;23;20204;-61
2023/09/30 04:39:39;;;;;;;4.03;2.50;;;;;22.10;101425.00;;;;2551598;23;20224;-60
2023/09/30 04:40:40;;;;;;;3.13;1.90;;;;;22.10;101430.00;;;;2551659;23;20276;-60
2023/09/30 04:41:41;;;;;;;4.10;2.33;;;;;22.10;101432.00;;;;2537922;23;20266;-61
2023/09/30 04:42:44;;;;;;;2.42;1.95;;;;;22.10;101425.00;;;;2552139;23;20189;-60
2023/09/30 04:43:44;;;;;;;3.72;2.17;;;;;22.10;101435.00;;;;2552822;23;20250;-60
2023/09/30 04:44:45;;;;;;;3.07;2.10;;;;;22.10;101432.00;;;;2551746;23;20281;-60
2023/09/30 04:45:46;;;;;;;3.13;1.90;;;;;22.10;101442.00;;;;2551828;23;20229;-60
2023/09/30 04:46:47;;;;;;;2.88;2.22;;;;;22.10;101440.00;;;;2524862;23;20571;-60
2023/09/30 04:47:49;;;;;;;3.30;2.40;;;;;22.10;101441.00;;;;2539424;23;20198;-60
2023/09/30 04:48:51;;;;;;;2.97;1.95;;;;;22.10;101323.00;;;;2551552;23;20224;-60
2023/09/30 04:49:52;;;;;;;2.78;2.00;;;;;22.10;101453.00;;;;2537920;23;20195;-60
2023/09/30 04:50:52;;;;;;;3.03;1.83;;;;;22.10;101448.00;;;;2540210;23;20253;-60
2023/09/30 04:51:52;;;;;;;3.90;2.47;;;;;22.10;101449.00;;;;2537759;23;20197;-60
2023/09/30 04:52:53;;;;;;;3.03;1.90;;;;;22.10;101447.00;;;;2552506;23;20197;-61
2023/09/30 04:53:55;;;;;;;3.63;2.20;;;;;22.10;101445.00;;;;2538986;23;20206;-61
2023/09/30 04:54:56;;;;;;;4.40;2.75;;;;;22.10;101446.00;;;;2540199;23;20202;-60
2023/09/30 04:55:57;;;;;;;4.13;2.10;;;;;22.10;101453.00;;;;2552317;23;20252;-60
2023/09/30 04:56:57;;;;;;;3.30;2.13;;;;;22.10;101460.00;;;;2525280;23;20202;-60
2023/09/30 04:57:57;;;;;;;3.43;2.60;;;;;22.10;101453.00;;;;2539418;23;20206;-61
2023/09/30 04:58:58;;;;;;;3.27;1.87;;;;;22.10;101458.00;;;;2551666;23;20204;-60
2023/09/30 04:59:59;;;;;;;2.97;2.23;;;;;22.10;101461.00;;;;2547845;23;20204;-61
2023/09/30 05:00:59;;;;;;;3.73;2.10;;;;;22.10;101458.00;;;;2551697;23;21094;-60